Agness, Oregon
Current Conditions -  °F | °C
As of 7:13 PM on Monday 20 Oct 2014 (Local Time) from KBOK Reporting Station
Haze Haze  
Wind Chill: 13°   Ceiling: 1000
Heat Index: 13°   Visibility: 6mi
Dew Point: 12°   Wind: 6mph
Humidity: 94%   Direction: 170°S
Pressure: 29.93"   Gusts: NA
Location:  42.56°N, 124.07°W
Report Text: KBOK 210213Z AUTO 17005KT 6SM BR BKN010 OVC015 13/12 A2993 RMK AO2 CIG 007V012
Loading
Personal Weather Stations






























Interactive Weather Map New forecast layout! Learn more

10-Day Weather Forecast

Advertisements
Track Severe Weather on mobile